Time,TemperatureF,DewpointF,PressureIn,WindDirection,WindDirectionDegrees,WindSpeedMPH,WindSpeedGustMPH,Humidity,HourlyPrecipIn,Conditions,Clouds,dailyrainin,SolarRadiationWatts/m^2,SoftwareType,DateUTC
2013-08-23 00:02:00,52.0,52.0,-100.00,SW,224,2.0,4.0,100,0.00,,,0.04,0.000000,,2013-08-23 08:02:00,
2013-08-23 00:12:00,52.0,52.0,-100.00,SW,224,2.0,4.0,100,0.00,,,0.04,0.000000,,2013-08-23 08:12:00,
2013-08-23 00:22:00,52.0,52.0,-100.00,SW,224,2.0,4.0,100,0.00,,,0.04,0.000000,,2013-08-23 08:22:00,
2013-08-23 00:52:00,52.0,52.0,-100.00,ESE,122,2.0,3.0,100,0.00,,,-99.99,0.000000,,2013-08-23 08:52:00,
2013-08-23 01:01:00,52.0,52.0,-100.00,ESE,122,2.0,3.0,100,0.00,,,-99.99,0.000000,,2013-08-23 09:01:00,
2013-08-23 01:12:00,52.0,52.0,-100.00,ESE,122,2.0,3.0,100,0.00,,,-99.99,0.000000,,2013-08-23 09:12:00,
2013-08-23 01:21:00,52.0,52.0,-100.00,ESE,122,2.0,3.0,100,0.00,,,-99.99,0.000000,,2013-08-23 09:21:00,
2013-08-23 01:53:00,51.0,51.0,-100.00,SSE,147,3.0,4.0,100,0.01,,,0.05,0.000000,,2013-08-23 09:53:00,
2013-08-23 02:03:00,51.0,51.0,-100.00,SSE,147,3.0,4.0,100,0.01,,,0.05,0.000000,,2013-08-23 10:03:00,
2013-08-23 02:13:00,51.0,51.0,-100.00,SSE,147,3.0,4.0,100,0.01,,,0.05,0.000000,,2013-08-23 10:13:00,
2013-08-23 02:22:00,51.0,51.0,-100.00,SSE,147,3.0,4.0,100,0.01,,,0.05,0.000000,,2013-08-23 10:22:00,
2013-08-23 02:53:00,52.0,52.0,-100.00,SE,127,2.0,4.0,100,0.07,,,0.12,0.000000,,2013-08-23 10:53:00,
2013-08-23 03:02:00,52.0,52.0,-100.00,SE,127,2.0,4.0,100,0.07,,,0.12,0.000000,,2013-08-23 11:02:00,
2013-08-23 03:11:00,52.0,52.0,-100.00,SE,127,2.0,4.0,100,0.07,,,0.12,0.000000,,2013-08-23 11:11:00,
2013-08-23 03:22:00,52.0,52.0,-100.00,SE,127,2.0,4.0,100,0.07,,,0.12,0.000000,,2013-08-23 11:22:00,
2013-08-23 03:53:00,51.0,51.0,-100.00,SE,135,2.0,4.0,100,0.10,,,0.22,0.000000,,2013-08-23 11:53:00,
2013-08-23 04:01:00,51.0,51.0,-100.00,SE,135,2.0,4.0,100,0.10,,,0.22,0.000000,,2013-08-23 12:01:00,
2013-08-23 04:11:00,51.0,51.0,-100.00,SE,135,2.0,4.0,100,0.10,,,0.22,0.000000,,2013-08-23 12:11:00,
2013-08-23 04:22:00,51.0,51.0,-100.00,SE,135,2.0,4.0,100,0.10,,,0.22,0.000000,,2013-08-23 12:22:00,
2013-08-23 04:52:00,51.0,51.0,-100.00,South,172,7.0,10.0,100,0.07,,,0.29,0.000000,,2013-08-23 12:52:00,
2013-08-23 05:02:00,51.0,51.0,-100.00,South,172,7.0,10.0,100,0.07,,,0.29,0.000000,,2013-08-23 13:02:00,
2013-08-23 05:11:00,51.0,51.0,-100.00,South,172,7.0,10.0,100,0.07,,,0.29,0.000000,,2013-08-23 13:11:00,
2013-08-23 05:22:00,51.0,51.0,-100.00,South,172,7.0,10.0,100,0.07,,,0.29,0.000000,,2013-08-23 13:22:00,
2013-08-23 05:52:00,51.0,51.0,-100.00,SSW,208,6.0,12.0,100,0.03,,,-99.99,0.000000,,2013-08-23 13:52:00,
2013-08-23 06:02:00,51.0,51.0,-100.00,SSW,208,6.0,12.0,100,0.03,,,-99.99,0.000000,,2013-08-23 14:02:00,
2013-08-23 06:11:00,51.0,51.0,-100.00,SSW,208,6.0,12.0,100,0.03,,,-99.99,0.000000,,2013-08-23 14:11:00,
2013-08-23 06:21:00,51.0,51.0,-100.00,SSW,208,6.0,12.0,100,0.03,,,-99.99,0.000000,,2013-08-23 14:21:00,
2013-08-23 06:52:00,50.0,50.0,-100.00,South,191,4.0,11.0,100,0.04,,,0.36,1.000000,,2013-08-23 14:52:00,
2013-08-23 07:01:00,50.0,50.0,-100.00,South,191,4.0,11.0,100,0.04,,,0.36,1.000000,,2013-08-23 15:01:00,
2013-08-23 07:11:00,50.0,50.0,-100.00,South,191,4.0,11.0,100,0.04,,,0.36,1.000000,,2013-08-23 15:11:00,
2013-08-23 07:21:00,50.0,50.0,-100.00,South,191,4.0,11.0,100,0.04,,,0.36,1.000000,,2013-08-23 15:21:00,
2013-08-23 07:54:00,51.0,51.0,-100.00,WSW,249,7.0,10.0,100,0.07,,,0.43,13.000000,,2013-08-23 15:54:00,
2013-08-23 08:05:00,51.0,51.0,-100.00,WSW,249,7.0,10.0,100,0.07,,,0.43,13.000000,,2013-08-23 16:05:00,
2013-08-23 08:13:00,51.0,51.0,-100.00,WSW,249,7.0,10.0,100,0.07,,,0.43,13.000000,,2013-08-23 16:13:00,
2013-08-23 08:24:00,51.0,51.0,-100.00,WSW,249,7.0,10.0,100,0.07,,,0.43,13.000000,,2013-08-23 16:24:00,
2013-08-23 08:53:00,51.0,51.0,-100.00,WSW,252,10.0,14.0,100,0.04,,,0.47,21.000000,,2013-08-23 16:53:00,
2013-08-23 09:03:00,51.0,51.0,-100.00,WSW,252,10.0,14.0,100,0.04,,,0.47,21.000000,,2013-08-23 17:03:00,
2013-08-23 09:13:00,51.0,51.0,-100.00,WSW,252,10.0,14.0,100,0.04,,,0.47,21.000000,,2013-08-23 17:13:00,
2013-08-23 09:23:00,51.0,51.0,-100.00,WSW,252,10.0,14.0,100,0.04,,,0.47,21.000000,,2013-08-23 17:23:00,
2013-08-23 09:53:00,51.0,51.0,-100.00,SW,236,6.0,14.0,100,0.06,,,0.53,58.000000,,2013-08-23 17:53:00,
2013-08-23 10:02:00,51.0,51.0,-100.00,SW,236,6.0,14.0,100,0.06,,,0.53,58.000000,,2013-08-23 18:02:00,
2013-08-23 10:12:00,51.0,51.0,-100.00,SW,236,6.0,14.0,100,0.06,,,0.53,58.000000,,2013-08-23 18:12:00,
2013-08-23 10:22:00,51.0,51.0,-100.00,SW,236,6.0,14.0,100,0.06,,,0.53,58.000000,,2013-08-23 18:22:00,
2013-08-23 10:52:00,52.0,52.0,-100.00,WSW,245,5.0,9.0,100,0.05,,,0.58,109.000000,,2013-08-23 18:52:00,
2013-08-23 11:01:00,52.0,52.0,-100.00,WSW,245,5.0,9.0,100,0.05,,,0.58,109.000000,,2013-08-23 19:01:00,
2013-08-23 11:11:00,52.0,52.0,-100.00,WSW,245,5.0,9.0,100,0.05,,,0.58,109.000000,,2013-08-23 19:11:00,
2013-08-23 11:22:00,52.0,52.0,-100.00,WSW,245,5.0,9.0,100,0.05,,,0.58,109.000000,,2013-08-23 19:22:00,
2013-08-23 11:52:00,54.0,54.0,-100.00,WSW,248,4.0,7.0,100,0.03,,,0.61,165.000000,,2013-08-23 19:52:00,
2013-08-23 12:02:00,54.0,54.0,-100.00,WSW,248,4.0,7.0,100,0.03,,,0.61,165.000000,,2013-08-23 20:02:00,
2013-08-23 12:12:00,54.0,54.0,-100.00,WSW,248,4.0,7.0,100,0.03,,,0.61,165.000000,,2013-08-23 20:12:00,
2013-08-23 12:22:00,54.0,54.0,-100.00,WSW,248,4.0,7.0,100,0.03,,,0.61,165.000000,,2013-08-23 20:22:00,
2013-08-23 12:52:00,55.0,55.0,-100.00,West,266,5.0,8.0,100,0.00,,,0.61,200.000000,,2013-08-23 20:52:00,
2013-08-23 13:02:00,55.0,55.0,-100.00,West,266,5.0,8.0,100,0.00,,,0.61,200.000000,,2013-08-23 21:02:00,
2013-08-23 13:11:00,55.0,55.0,-100.00,West,266,5.0,8.0,100,0.00,,,0.61,200.000000,,2013-08-23 21:11:00,
2013-08-23 13:21:00,55.0,55.0,-100.00,West,266,5.0,8.0,100,0.00,,,0.61,200.000000,,2013-08-23 21:21:00,
2013-08-23 13:54:00,54.0,54.0,-100.00,NW,312,5.0,10.0,100,0.01,,,0.62,194.000000,,2013-08-23 21:54:00,
2013-08-23 14:04:00,54.0,54.0,-100.00,NW,312,5.0,10.0,100,0.01,,,0.62,194.000000,,2013-08-23 22:04:00,
2013-08-23 14:13:00,54.0,54.0,-100.00,NW,312,5.0,10.0,100,0.01,,,0.62,194.000000,,2013-08-23 22:13:00,
2013-08-23 14:24:00,54.0,54.0,-100.00,NW,312,5.0,10.0,100,0.01,,,0.62,194.000000,,2013-08-23 22:24:00,
2013-08-23 14:53:00,56.0,56.0,-100.00,West,267,5.0,8.0,100,0.02,,,0.64,187.000000,,2013-08-23 22:53:00,
2013-08-23 15:03:00,56.0,56.0,-100.00,West,267,5.0,8.0,100,0.02,,,0.64,187.000000,,2013-08-23 23:03:00,
2013-08-23 15:12:00,56.0,56.0,-100.00,West,267,5.0,8.0,100,0.02,,,0.64,187.000000,,2013-08-23 23:12:00,
2013-08-23 15:22:00,56.0,56.0,-100.00,West,267,5.0,8.0,100,0.02,,,0.64,187.000000,,2013-08-23 23:22:00,
2013-08-23 15:54:00,55.0,55.0,-100.00,SW,225,4.0,7.0,100,0.01,,,0.65,172.000000,,2013-08-23 23:54:00,
2013-08-23 16:02:00,55.0,55.0,-100.00,SW,225,4.0,7.0,100,0.01,,,0.65,172.000000,,2013-08-24 00:02:00,
2013-08-23 16:11:00,55.0,55.0,-100.00,SW,225,4.0,7.0,100,0.01,,,0.65,172.000000,,2013-08-24 00:11:00,
2013-08-23 16:21:00,55.0,55.0,-100.00,SW,225,4.0,7.0,100,0.01,,,0.65,172.000000,,2013-08-24 00:21:00,
2013-08-23 16:53:00,54.0,54.0,-100.00,SSE,150,3.0,6.0,100,0.20,,,0.85,87.000000,,2013-08-24 00:53:00,
2013-08-23 17:02:00,54.0,54.0,-100.00,SSE,150,3.0,6.0,100,0.20,,,0.85,87.000000,,2013-08-24 01:02:00,
2013-08-23 17:11:00,54.0,54.0,-100.00,SSE,150,3.0,6.0,100,0.20,,,0.85,87.000000,,2013-08-24 01:11:00,
2013-08-23 17:22:00,54.0,54.0,-100.00,SSE,150,3.0,6.0,100,0.20,,,0.85,87.000000,,2013-08-24 01:22:00,
2013-08-23 17:53:00,57.0,57.0,-100.00,NE,49,2.0,5.0,100,0.02,,,0.87,213.000000,,2013-08-24 01:53:00,
2013-08-23 18:02:00,57.0,57.0,-100.00,NE,49,2.0,5.0,100,0.02,,,0.87,213.000000,,2013-08-24 02:02:00,
2013-08-23 18:11:00,57.0,57.0,-100.00,NE,49,2.0,5.0,100,0.02,,,0.87,213.000000,,2013-08-24 02:11:00,
2013-08-23 18:22:00,57.0,57.0,-100.00,NE,49,2.0,5.0,100,0.02,,,0.87,213.000000,,2013-08-24 02:22:00,
2013-08-23 18:52:00,55.0,55.0,-100.00,NNE,26,3.0,6.0,100,0.06,,,0.93,83.000000,,2013-08-24 02:52:00,
2013-08-23 19:02:00,55.0,55.0,-100.00,NNE,26,3.0,6.0,100,0.06,,,0.93,83.000000,,2013-08-24 03:02:00,
2013-08-23 19:12:00,55.0,55.0,-100.00,NNE,26,3.0,6.0,100,0.06,,,0.93,83.000000,,2013-08-24 03:12:00,
2013-08-23 19:22:00,55.0,55.0,-100.00,NNE,26,3.0,6.0,100,0.06,,,0.93,83.000000,,2013-08-24 03:22:00,
2013-08-23 19:55:00,54.0,54.0,-100.00,NE,41,4.0,9.0,100,0.00,,,0.93,117.000000,,2013-08-24 03:55:00,
2013-08-23 20:04:00,54.0,54.0,-100.00,NE,41,4.0,9.0,100,0.00,,,0.93,117.000000,,2013-08-24 04:04:00,
2013-08-23 20:14:00,54.0,54.0,-100.00,NE,41,4.0,9.0,100,0.00,,,0.93,117.000000,,2013-08-24 04:14:00,
2013-08-23 20:24:00,54.0,54.0,-100.00,NE,41,4.0,9.0,100,0.00,,,0.93,117.000000,,2013-08-24 04:24:00,
2013-08-23 20:53:00,52.0,52.0,-100.00,NE,45,3.0,7.0,99,0.00,,,-99.99,47.000000,,2013-08-24 04:53:00,
2013-08-23 21:03:00,52.0,52.0,-100.00,NE,45,3.0,7.0,99,0.00,,,-99.99,47.000000,,2013-08-24 05:03:00,
2013-08-23 21:13:00,52.0,52.0,-100.00,NE,45,3.0,7.0,99,0.00,,,-99.99,47.000000,,2013-08-24 05:13:00,
2013-08-23 21:23:00,52.0,52.0,-100.00,NE,45,3.0,7.0,99,0.00,,,-99.99,47.000000,,2013-08-24 05:23:00,
2013-08-23 21:53:00,50.0,49.0,-100.00,NE,54,4.0,7.0,96,0.00,,,0.93,18.000000,,2013-08-24 05:53:00,
2013-08-23 22:02:00,50.0,49.0,-100.00,NE,54,4.0,7.0,96,0.00,,,0.93,18.000000,,2013-08-24 06:02:00,
2013-08-23 22:12:00,50.0,49.0,-100.00,NE,54,4.0,7.0,96,0.00,,,0.93,18.000000,,2013-08-24 06:12:00,
2013-08-23 22:21:00,50.0,49.0,-100.00,NE,54,4.0,7.0,96,0.00,,,0.93,18.000000,,2013-08-24 06:21:00,
2013-08-23 22:52:00,49.0,48.0,-100.00,NE,37,3.0,6.0,96,0.00,,,0.89,3.000000,,2013-08-24 06:52:00,
2013-08-23 23:02:00,49.0,48.0,-100.00,NE,37,3.0,6.0,96,0.00,,,0.89,3.000000,,2013-08-24 07:02:00,
2013-08-23 23:12:00,49.0,48.0,-100.00,NE,37,3.0,6.0,96,0.00,,,0.89,3.000000,,2013-08-24 07:12:00,
2013-08-23 23:21:00,49.0,48.0,-100.00,NE,37,3.0,6.0,96,0.00,,,0.89,3.000000,,2013-08-24 07:21:00,
2013-08-23 23:53:00,50.0,49.0,-100.00,North,359,4.0,7.0,98,0.00,,,0.89,0.000000,,2013-08-24 07:53:00,